• Join FlightAware (Why Join?)
  • Login
  • US Flag 
12:33PM EDT


 

Airport Tracker/Info


-or-


 

Live Flight TrackerFlight Track Log ✈ N9231Y ✈ 29-Apr-2012 ✈ KORL - KMOB

Flight Track Log - Related Links

Times and Time Zones

All times are in EDT time to prevent confusion due to time zone crossing. See the N9231Y flight status page for this flight to view local times or setup timezone preferences in your user account.

Time Position Orientation Groundspeed Altitude Reporting Facility
EDT Latitude Longitude Course Direction KTS MPH feet Rate Location/Type
02:47PM 28.5500 -81.3167 53° Northeast 108 124 500  Level Orlando TRACON
02:48PM 28.5833 -81.2667 360° North 130 150 1,500 360 Climbing Orlando TRACON
02:49PM 28.6333 -81.2667 291° West 169 194 1,500 240 Level Orlando TRACON
02:50PM 28.6500 -81.3167 249° West 164 189 2,000 240 Climbing Orlando TRACON
02:51PM 28.6333 -81.3667 249° West 188 216 2,000 360 Level Orlando TRACON
02:52PM 28.6167 -81.4167 270° West 169 194 2,700 600 Climbing Orlando TRACON
02:53PM 28.6167 -81.4667 249° West 167 192 3,300 600 Climbing Orlando TRACON
02:54PM 28.6000 -81.5167 270° West 157 181 4,000 720 Climbing Orlando TRACON
02:55PM 28.6000 -81.5667 270° West 157 181 4,800 840 Climbing Orlando TRACON
02:56PM 28.6000 -81.6167 285° West 151 174 5,800 780 Climbing Orlando TRACON
02:58PM 28.6267 -81.7314 303° West 163 188 7,600 720 Climbing Jacksonville Center
02:59PM 28.6522 -81.7758 301° West 157 181 8,300 780 Climbing Jacksonville Center
03:00PM 28.6756 -81.8206 303° West 163 188 9,200 780 Climbing Jacksonville Center
03:01PM 28.6967 -81.8583 295° West 163 188 9,900 780 Climbing Jacksonville Center
03:02PM 28.7158 -81.9056 296° West 163 188 10,800 840 Climbing Jacksonville Center
03:03PM 28.7372 -81.9550 297° West 163 188 11,600 780 Climbing Jacksonville Center
03:04PM 28.7583 -82.0022 305° West 163 188 12,400 840 Climbing Jacksonville Center
03:05PM 28.7858 -82.0469 308° West 168 193 13,300 840 Climbing Jacksonville Center
03:06PM 28.8131 -82.0869 305° West 168 193 14,100 840 Climbing Jacksonville Center
03:07PM 28.8425 -82.1342 306° West 168 193 15,000 780 Climbing Jacksonville Center
03:08PM 28.8722 -82.1814 306° West 168 193 15,700 780 Climbing Jacksonville Center
03:09PM 28.8994 -82.2239 300° West 168 193 16,600 720 Climbing Jacksonville Center
03:10PM 28.9247 -82.2733 310° West 173 199 17,200 600 Climbing Jacksonville Center
03:11PM 28.9564 -82.3158 305° West 178 205 17,900 660 Climbing Jacksonville Center
03:12PM 28.9836 -82.3608 298° West 178 205 18,600 540 Climbing Jacksonville Center
03:13PM 29.0067 -82.4106 296° West 178 205 19,000 600 Climbing Jacksonville Center
03:14PM 29.0278 -82.4603 298° West 178 205 19,800 480 Climbing Jacksonville Center
03:15PM 29.0508 -82.5103 297° West 178 205 20,000 60 Climbing Jacksonville Center
03:16PM 29.0761 -82.5672 303° West 184 212 20,000  Level Jacksonville Center
03:17PM 29.1056 -82.6192 304° West 190 219 20,000  Level Jacksonville Center
03:18PM 29.1389 -82.6761 301° West 202 232 20,000  Level Jacksonville Center
03:19PM 29.1683 -82.7333 303° West 208 239 20,000  Level Jacksonville Center
03:20PM 29.1997 -82.7878 304° West 208 239 20,000  Level Jacksonville Center
03:21PM 29.2311 -82.8403 299° West 208 239 20,000  Level Jacksonville Center
03:22PM 29.2581 -82.8950 303° West 208 239 20,000  Level Jacksonville Center
03:23PM 29.2894 -82.9497 301° West 208 239 20,000  Level Jacksonville Center
03:24PM 29.3186 -83.0044 304° West 208 239 20,000  Level Jacksonville Center
03:25PM 29.3500 -83.0569 301° West 208 239 20,000  Level Jacksonville Center
03:26PM 29.3792 -83.1119 304° West 208 239 20,000  Level Jacksonville Center
03:27PM 29.4103 -83.1644 301° West 203 234 20,000  Level Jacksonville Center
03:28PM 29.4394 -83.2192 304° West 203 234 20,000  Level Jacksonville Center
03:29PM 29.4706 -83.2719 300° West 203 234 20,000  Level Jacksonville Center
03:30PM 29.4994 -83.3292 304° West 203 234 20,000  Level Jacksonville Center
03:31PM 29.5306 -83.3819 301° West 203 234 20,000  Level Jacksonville Center
03:32PM 29.5597 -83.4369 299° West 203 234 20,000  Level Jacksonville Center
03:33PM 29.5867 -83.4919 301° West 203 234 20,000  Level Jacksonville Center
03:34PM 29.6156 -83.5472 298° West 203 234 20,000  Level Jacksonville Center
03:35PM 29.6425 -83.6047 302° West 203 234 20,000  Level Jacksonville Center
03:36PM 29.6733 -83.6622 306° West 203 234 20,000  Level Jacksonville Center
03:37PM 29.7064 -83.7150 288° West 203 234 20,000  Level Jacksonville Center
03:38PM 29.7228 -83.7728 303° West 198 228 20,000  Level Jacksonville Center
03:39PM 29.7536 -83.8281 300° West 198 228 20,000  Level Jacksonville Center
03:40PM 29.7803 -83.8808 292° West 198 228 20,000  Level Jacksonville Center
03:41PM 29.8008 -83.9408 280° West 198 228 20,000  Level Jacksonville Center
03:42PM 29.8108 -84.0033 278° West 198 228 20,000  Level Jacksonville Center
03:43PM 29.8186 -84.0656 282° West 198 228 20,000  Level Jacksonville Center
03:44PM 29.8306 -84.1281 280° West 198 228 20,000  Level Jacksonville Center
03:45PM 29.8403 -84.1903 287° West 198 228 20,000  Level Jacksonville Center
03:46PM 29.8564 -84.2506 282° West 198 228 20,000  Level Jacksonville Center
03:47PM 29.8683 -84.3128 285° West 203 234 20,000  Level Jacksonville Center
03:48PM 29.8822 -84.3731 284° West 203 234 20,000  Level Jacksonville Center
03:49PM 29.8961 -84.4356 285° West 203 234 20,000  Level Jacksonville Center
03:50PM 29.9100 -84.4956 285° West 203 234 20,000  Level Jacksonville Center
04:11PM 30.1922 -85.7786 283° West 210 242 20,100  Climbing Jacksonville Center
04:22PM 30.3325 -86.4928 287° West 203 234 20,100  Level Jacksonville Center
04:23PM 30.3458 -86.5439 281° West 204 235 20,100  Level Jacksonville Center
04:24PM 30.3564 -86.6067 285° West 205 236 20,100  Level Jacksonville Center
04:25PM 30.3714 -86.6700 282° West 203 234 20,100  Level Jacksonville Center
04:26PM 30.3839 -86.7356 284° West 204 235 20,100  Level Jacksonville Center
04:27PM 30.3967 -86.7939 283° West 203 234 20,100  Level Jacksonville Center
04:28PM 30.4111 -86.8667 284° West 204 235 20,100  Level Jacksonville Center
04:29PM 30.4239 -86.9250 276° West 204 235 20,100  Level Jacksonville Center
04:30PM 30.4303 -86.9928 244° Southwest 203 234 20,100 -300 Level Jacksonville Center
04:31PM 30.4075 -87.0472 258° West 211 243 19,600 -660 Descending Jacksonville Center
04:32PM 30.3947 -87.1164 302° West 236 272 18,900 -600 Descending Jacksonville Center
04:33PM 30.4264 -87.1756 303° West 229 264 18,400 -600 Descending Jacksonville Center
04:34PM 30.4675 -87.2497 302° West 225 259 17,700 -720 Descending Jacksonville Center
04:35PM 30.4989 -87.3089 298° West 227 261 17,000 -720 Descending Jacksonville Center
04:36PM 30.5300 -87.3756 277° West 225 259 16,300 -780 Descending Jacksonville Center
04:37PM 30.5378 -87.4481 284° West 224 258 15,500 -780 Descending Jacksonville Center
04:38PM 30.5522 -87.5164 276° West 224 258 14,800 -900 Descending Jacksonville Center
04:39PM 30.5597 -87.5939 283° West 234 269 13,700 -1,140 Descending Jacksonville Center
04:47PM 30.6408 -88.0118 282° West  Level FlightAware Approximate
04:48PM 30.6516 -88.0692 282° West  Level FlightAware Approximate
04:49PM 30.6623 -88.1266 283° West  Level FlightAware Approximate
04:50PM 30.6735 -88.1839 290° West  Level FlightAware Approximate
04:51PM 30.6903 -88.2393 289° West  Level Estimated
04:52PM 30.7072 -88.2947 109° East  Level Estimated
04:53PM 30.6903 -88.2393 289° West  Level Estimated
04:54PM 30.7072 -88.2947 114° Southeast  Level Estimated
04:55PM 30.6833 -88.2333 114° Southeast  Level FlightAware Approximate